Hlavní strana
METAR-TAF:

METAR-TAF

Letiště :

Cervia, Itálie

zeměpisná šířka: 44-13N, zeměpisná délka: 012-18E, výška: 6 m

Aktuální stav počasí

Zpráva byla vytvořena před 1 hodinou a 3 minutami, v 03:55 UTC
Západoseverozápadní vítr 6 kt
Teplota 4°C
Vlhkost vzduchu 93%
Tlak 1017 hPa
Viditelnost: 1800 m
Zataženo ve výšce 1600 ft
slabý déšť, kouřmo

METAR: LIPC 180355Z 29006KT 1800 -RA BR OVC016 04/03 Q1017 RMK OVC VIS MIN 1800 WIND THR11 29005T WIND THR29 /////KT YLO

Čas: 05:58 (04:58 UTC)

Předpověď počasí

Zpráva byla vytvořena před 2 hodinami a 58 minutami, v 02:00 UTC
Předpověď platná od 18 v 03 UTC do 18 v 12 UTC
Západoseverozápadní vítr 6 kt
Viditelnost: 2500 m
Zataženo ve výšce 3000 ft
déšť, kouřmo

TAF: LIPC 180200Z 1803/1812 30006KT 2500 RA BR OVC030

Stav a předpovědi počasí z více než 4 000 letišť (zprávy METAR a TAF).

Červené a žluté tečky na mapě představují dostupné meteorologické stanice.

Když kurzor umístíte na tečku, zobrazí se název stanice.

Pak kliknutím zobrazíte stav a předpověď počasí.

Chcete-li změnit mapu, kliknutím na zelené tlačítko se znaménkem +mapu přiblížíte, kliknutím na zelené tlačítko se znaménkem – mapu oddálíte a kliknutím na zelené šipky přejdete na sousední mapy.


METAR-TAF: